Lima, Minnesota
Current Conditions -  °F | °C
As of 10:36 AM on Wednesday 26 Nov 2014 (Local Time) from KXVG Reporting Station
Light Snow Light Snow  
Wind Chill:   Ceiling: 1700
Heat Index: 12°   Visibility: 3mi
Dew Point:   Wind: 7mph
Humidity: 79%   Direction: 330°NNW
Pressure: 30.24"   Gusts: NA
Location:  47.0973°N, 93.9173°W
Report Text: KXVG 261636Z AUTO 33006KT 3SM -SN OVC017 M11/M14 A3024 RMK AO2
Loading
Personal Weather Stations






























Interactive Weather Map New forecast layout! Learn more

10-Day Weather Forecast

Advertisements
Track Severe Weather on mobile